createdAt,value
2019-03-16T00:01:12.868Z,48.40
2019-03-16T00:03:42.952Z,48.60
2019-03-16T00:06:13.583Z,48.90
2019-03-16T00:08:44.299Z,49.00
2019-03-16T00:11:14.987Z,49.00
2019-03-16T00:13:45.596Z,49.10
2019-03-16T00:16:16.294Z,49.30
2019-03-16T00:18:47.008Z,49.40
2019-03-16T00:21:17.731Z,49.50
2019-03-16T00:23:48.226Z,49.60
2019-03-16T00:26:19.075Z,49.60
2019-03-16T00:28:49.661Z,49.80
2019-03-16T00:31:20.334Z,49.90
2019-03-16T00:33:51.039Z,50.10
2019-03-16T00:36:21.598Z,49.90
2019-03-16T00:38:52.442Z,50.00
2019-03-16T00:41:23.177Z,50.00
2019-03-16T00:43:54.082Z,50.20
2019-03-16T00:46:24.735Z,50.10
2019-03-16T00:48:55.333Z,50.20
2019-03-16T00:51:25.957Z,50.40
2019-03-16T00:53:56.626Z,50.60
2019-03-16T00:56:27.083Z,50.70
2019-03-16T00:58:57.726Z,50.80
2019-03-16T01:01:28.507Z,51.00
2019-03-16T01:03:59.218Z,51.10
2019-03-16T01:06:29.736Z,51.10
2019-03-16T01:09:00.345Z,51.10
2019-03-16T01:11:30.865Z,51.20
2019-03-16T01:14:01.363Z,51.40
2019-03-16T01:16:32.089Z,51.40
2019-03-16T01:19:02.894Z,51.50
2019-03-16T01:21:33.493Z,51.60
2019-03-16T01:24:03.996Z,51.60
2019-03-16T01:26:34.612Z,51.60
2019-03-16T01:29:05.142Z,51.80
2019-03-16T01:31:35.691Z,51.40
2019-03-16T01:34:06.296Z,51.20
2019-03-16T01:36:37.038Z,51.20
2019-03-16T01:39:09.001Z,51.20
2019-03-16T01:41:39.659Z,51.20
2019-03-16T01:44:10.168Z,51.30
2019-03-16T01:46:40.850Z,51.30
2019-03-16T01:49:11.417Z,51.40
2019-03-16T01:51:42.075Z,52.20
2019-03-16T01:54:12.791Z,51.60
2019-03-16T01:56:43.345Z,51.60
2019-03-16T01:59:13.943Z,51.70
2019-03-16T02:01:44.492Z,51.80
2019-03-16T02:04:15.320Z,51.90
2019-03-16T02:06:46.048Z,51.90
2019-03-16T02:09:16.627Z,51.90
2019-03-16T02:11:47.128Z,51.90
2019-03-16T02:14:17.861Z,51.80
2019-03-16T02:16:48.520Z,51.70
2019-03-16T02:19:19.363Z,51.60
2019-03-16T02:21:50.094Z,51.60
2019-03-16T02:24:21.035Z,51.60
2019-03-16T02:26:51.818Z,51.30
2019-03-16T02:29:22.398Z,51.10
2019-03-16T02:31:52.965Z,51.00
2019-03-16T02:34:23.618Z,51.00
2019-03-16T02:36:54.681Z,51.00
2019-03-16T02:39:25.431Z,51.10
2019-03-16T02:41:55.908Z,51.20
2019-03-16T02:44:26.568Z,51.20
2019-03-16T02:46:57.398Z,51.20
2019-03-16T02:49:27.820Z,51.20
2019-03-16T02:51:58.594Z,51.20
2019-03-16T02:54:29.530Z,51.10
2019-03-16T02:57:00.018Z,51.00
2019-03-16T02:59:30.598Z,51.00
2019-03-16T03:02:01.351Z,51.00
2019-03-16T03:04:32.140Z,51.00
2019-03-16T03:07:02.638Z,51.20
2019-03-16T03:09:33.363Z,50.90
2019-03-16T03:12:04.072Z,50.90
2019-03-16T03:14:35.585Z,50.90
2019-03-16T03:17:06.007Z,50.90
2019-03-16T03:19:36.370Z,50.80
2019-03-16T03:22:08.780Z,50.70
2019-03-16T03:24:44.014Z,50.70
2019-03-16T03:27:11.884Z,50.60
2019-03-16T03:29:42.370Z,50.60
2019-03-16T03:32:12.935Z,50.60
2019-03-16T03:34:43.609Z,50.70
2019-03-16T03:37:14.469Z,50.70
2019-03-16T03:39:45.294Z,50.90
2019-03-16T03:42:15.930Z,50.90
2019-03-16T03:44:46.548Z,50.90
2019-03-16T03:47:16.958Z,50.90
2019-03-16T03:49:47.561Z,51.00
2019-03-16T03:52:18.203Z,51.00
2019-03-16T03:54:48.973Z,51.00
2019-03-16T03:57:19.457Z,50.90
2019-03-16T03:59:49.989Z,50.90
2019-03-16T04:02:20.754Z,51.30
2019-03-16T04:04:51.347Z,51.00
2019-03-16T04:07:21.946Z,51.00
2019-03-16T04:09:52.580Z,51.00
2019-03-16T04:12:23.296Z,51.00
2019-03-16T04:14:53.884Z,51.00
2019-03-16T04:17:24.450Z,50.90
2019-03-16T04:19:54.917Z,50.70
2019-03-16T04:22:25.761Z,50.60
2019-03-16T04:24:56.601Z,50.80
2019-03-16T04:27:27.227Z,50.40
2019-03-16T04:29:57.738Z,50.40
2019-03-16T04:32:28.460Z,50.40
2019-03-16T04:34:58.976Z,50.40
2019-03-16T04:37:29.662Z,50.40
2019-03-16T04:40:00.865Z,50.40
2019-03-16T04:42:31.843Z,50.50
2019-03-16T04:45:03.144Z,50.50
2019-03-16T04:47:33.692Z,50.60
2019-03-16T04:50:04.583Z,50.70
2019-03-16T04:52:35.168Z,50.70
2019-03-16T04:55:05.791Z,50.80
2019-03-16T04:57:36.321Z,50.70
2019-03-16T05:00:07.800Z,50.70
2019-03-16T05:02:38.213Z,50.70
2019-03-16T05:05:08.843Z,50.70
2019-03-16T05:07:39.442Z,50.70
2019-03-16T05:10:15.338Z,50.80
2019-03-16T05:12:45.530Z,50.80
2019-03-16T05:15:16.226Z,50.70
2019-03-16T05:17:46.918Z,50.40
2019-03-16T05:20:17.525Z,50.40
2019-03-16T05:22:48.601Z,50.40
2019-03-16T05:25:19.221Z,50.40
2019-03-16T05:27:50.003Z,50.60
2019-03-16T05:30:20.446Z,50.70
2019-03-16T05:32:51.009Z,50.70
2019-03-16T05:35:21.846Z,50.70
2019-03-16T05:37:52.467Z,50.60
2019-03-16T05:40:23.237Z,50.60
2019-03-16T05:42:54.048Z,50.60
2019-03-16T05:45:24.661Z,50.60
2019-03-16T05:47:55.338Z,50.60
2019-03-16T05:50:26.057Z,51.10
2019-03-16T05:52:56.580Z,50.60
2019-03-16T05:55:27.222Z,50.50
2019-03-16T05:57:57.897Z,50.50
2019-03-16T06:00:28.478Z,50.50
2019-03-16T06:02:58.974Z,50.60
2019-03-16T06:05:29.576Z,50.60
2019-03-16T06:08:00.151Z,50.60
2019-03-16T06:10:30.692Z,50.70
2019-03-16T06:13:01.524Z,50.50
2019-03-16T06:15:32.188Z,50.30
2019-03-16T06:18:02.789Z,50.30
2019-03-16T06:20:33.353Z,50.30
2019-03-16T06:23:03.873Z,50.30
2019-03-16T06:25:34.433Z,50.30
2019-03-16T06:28:05.289Z,50.40
2019-03-16T06:30:35.856Z,50.50
2019-03-16T06:33:06.354Z,50.60
2019-03-16T06:35:36.812Z,50.60
2019-03-16T06:38:07.376Z,50.60
2019-03-16T06:40:38.050Z,50.50
2019-03-16T06:43:08.628Z,50.60
2019-03-16T06:45:39.445Z,50.50
2019-03-16T06:48:10.083Z,50.50
2019-03-16T06:50:40.613Z,50.40
2019-03-16T06:53:11.460Z,50.50
2019-03-16T06:55:42.390Z,50.60
2019-03-16T06:58:12.908Z,50.50
2019-03-16T07:00:43.962Z,50.60
2019-03-16T07:03:14.488Z,51.20
2019-03-16T07:05:45.093Z,50.60
2019-03-16T07:08:15.616Z,50.60
2019-03-16T07:10:46.194Z,50.40
2019-03-16T07:13:16.662Z,50.40
2019-03-16T07:15:47.203Z,50.40
2019-03-16T07:18:18.045Z,50.50
2019-03-16T07:20:48.618Z,50.50
2019-03-16T07:23:19.259Z,50.40
2019-03-16T07:25:50.212Z,51.40
2019-03-16T07:28:20.994Z,51.60
2019-03-16T07:30:51.631Z,51.60
2019-03-16T07:33:22.172Z,51.10
2019-03-16T07:35:52.735Z,51.80
2019-03-16T07:38:23.473Z,50.30
2019-03-16T07:40:54.287Z,48.60
2019-03-16T07:43:25.331Z,47.50
2019-03-16T07:45:56.387Z,46.40
2019-03-16T07:48:27.031Z,46.70
2019-03-16T07:50:57.522Z,47.00
2019-03-16T07:53:28.562Z,47.50
2019-03-16T07:55:59.411Z,45.60
2019-03-16T07:58:30.289Z,45.70
2019-03-16T08:01:03.436Z,45.40
2019-03-16T08:03:33.893Z,45.60
2019-03-16T08:06:04.422Z,46.20
2019-03-16T08:08:34.983Z,46.50
2019-03-16T08:11:05.793Z,46.90
2019-03-16T08:13:36.655Z,47.20
2019-03-16T08:16:07.738Z,47.40
2019-03-16T08:18:38.310Z,47.40
2019-03-16T08:21:09.056Z,47.40
2019-03-16T08:23:39.532Z,47.60
2019-03-16T08:26:10.274Z,48.00
2019-03-16T08:28:40.967Z,47.70
2019-03-16T08:31:11.756Z,48.00
2019-03-16T08:33:42.497Z,48.10
2019-03-16T08:36:13.282Z,48.10
2019-03-16T08:38:43.917Z,47.80
2019-03-16T08:41:14.629Z,47.50
2019-03-16T08:43:45.317Z,47.40
2019-03-16T08:46:15.815Z,47.60
2019-03-16T08:48:46.328Z,47.70
2019-03-16T08:51:17.109Z,47.60
2019-03-16T08:53:47.731Z,47.90
2019-03-16T08:56:18.643Z,48.10
2019-03-16T08:58:49.213Z,48.50
2019-03-16T09:01:19.830Z,48.10
2019-03-16T09:03:50.515Z,48.30
2019-03-16T09:06:20.976Z,48.00
2019-03-16T09:08:51.426Z,48.00
2019-03-16T09:11:21.988Z,48.10
2019-03-16T09:13:52.568Z,48.30
2019-03-16T09:16:23.367Z,48.70
2019-03-16T09:18:54.080Z,48.70
2019-03-16T09:21:24.784Z,49.10
2019-03-16T09:23:55.539Z,48.90
2019-03-16T09:26:26.363Z,49.40
2019-03-16T09:29:00.248Z,48.60
2019-03-16T09:31:29.369Z,49.70
2019-03-16T09:34:00.134Z,49.00
2019-03-16T09:36:30.636Z,48.90
2019-03-16T09:39:01.182Z,49.00
2019-03-16T09:41:31.767Z,52.00
2019-03-16T09:44:02.296Z,49.50
2019-03-16T09:46:33.127Z,50.30
2019-03-16T09:49:03.917Z,49.40
2019-03-16T09:51:34.443Z,49.10
2019-03-16T09:54:05.285Z,48.40
2019-03-16T09:56:37.357Z,48.60
2019-03-16T09:59:07.901Z,48.20
2019-03-16T10:01:38.437Z,49.50
2019-03-16T10:04:09.129Z,49.70
2019-03-16T10:06:39.847Z,50.60
2019-03-16T10:09:10.600Z,54.60
2019-03-16T10:11:41.453Z,52.80
2019-03-16T10:14:12.060Z,51.00
2019-03-16T10:16:42.683Z,50.40
2019-03-16T10:19:13.220Z,50.40
2019-03-16T10:21:44.006Z,50.60
2019-03-16T10:24:14.604Z,50.80
2019-03-16T10:26:45.410Z,50.80
2019-03-16T10:29:15.923Z,50.40
2019-03-16T10:31:46.702Z,50.40
2019-03-16T10:34:17.320Z,51.00
2019-03-16T10:36:48.065Z,50.90
2019-03-16T10:39:18.746Z,51.40
2019-03-16T10:41:49.520Z,51.10
2019-03-16T10:44:20.713Z,51.30
2019-03-16T10:46:51.410Z,50.70
2019-03-16T10:49:22.101Z,50.70
2019-03-16T10:51:52.747Z,50.60
2019-03-16T10:54:23.419Z,50.60
2019-03-16T10:56:54.013Z,50.50
2019-03-16T10:59:24.658Z,51.00
2019-03-16T11:01:55.039Z,51.80
2019-03-16T11:04:25.549Z,51.90
2019-03-16T11:06:56.111Z,52.30
2019-03-16T11:09:26.874Z,52.40
2019-03-16T11:11:57.216Z,52.70
2019-03-16T11:14:27.848Z,53.10
2019-03-16T11:16:58.592Z,53.40
2019-03-16T11:19:29.466Z,53.60
2019-03-16T11:22:00.120Z,54.90
2019-03-16T11:24:30.878Z,56.00
2019-03-16T11:27:01.492Z,56.30
2019-03-16T11:29:32.094Z,57.40
2019-03-16T11:32:06.735Z,58.50
2019-03-16T11:34:37.346Z,59.10
2019-03-16T11:37:08.137Z,57.90
2019-03-16T11:39:38.578Z,58.50
2019-03-16T11:42:11.096Z,59.60
2019-03-16T11:44:43.150Z,65.30
2019-03-16T11:47:14.249Z,75.60
2019-03-16T11:49:45.540Z,78.10
2019-03-16T11:52:16.760Z,80.10
2019-03-16T11:54:47.969Z,80.20
2019-03-16T11:57:21.991Z,84.00
2019-03-16T11:59:55.721Z,80.70
2019-03-16T12:02:30.161Z,73.80
2019-03-16T12:05:07.088Z,70.00
2019-03-16T12:07:37.708Z,65.50
2019-03-16T12:10:09.664Z,63.40
2019-03-16T12:12:40.378Z,62.20
2019-03-16T12:15:11.330Z,61.30
2019-03-16T12:17:42.068Z,60.80
2019-03-16T12:20:13.675Z,59.30
2019-03-16T12:22:46.362Z,59.00
2019-03-16T12:25:16.985Z,57.90
2019-03-16T12:27:47.970Z,57.10
2019-03-16T12:30:18.624Z,56.50
2019-03-16T12:32:49.399Z,55.90
2019-03-16T12:35:20.263Z,55.80
2019-03-16T12:37:51.065Z,55.70
2019-03-16T12:40:22.268Z,55.70
2019-03-16T12:42:52.841Z,55.60
2019-03-16T12:45:24.684Z,55.90
2019-03-16T12:47:55.411Z,56.20
2019-03-16T12:50:25.989Z,56.20
2019-03-16T12:52:56.620Z,56.20
2019-03-16T12:55:27.705Z,56.10
2019-03-16T12:58:00.604Z,56.20
2019-03-16T13:00:33.099Z,56.40
2019-03-16T13:03:04.552Z,56.30
2019-03-16T13:05:35.205Z,56.50
2019-03-16T13:08:07.551Z,56.30
2019-03-16T13:10:39.789Z,56.30
2019-03-16T13:13:11.045Z,56.40
2019-03-16T13:15:42.380Z,56.50
2019-03-16T13:18:27.753Z,56.30
2019-03-16T13:21:02.254Z,56.20
2019-03-16T13:23:33.931Z,56.20
2019-03-16T13:26:06.137Z,56.60
2019-03-16T13:28:39.650Z,55.70
2019-03-16T13:31:14.365Z,55.70
2019-03-16T13:33:45.593Z,55.60
2019-03-16T13:36:16.249Z,55.50
2019-03-16T13:38:47.011Z,55.50
2019-03-16T13:41:17.622Z,55.60
2019-03-16T13:43:48.219Z,55.50
2019-03-16T13:46:18.902Z,55.60
2019-03-16T13:48:49.611Z,55.50
2019-03-16T13:51:20.256Z,55.50
2019-03-16T13:53:52.335Z,55.50
2019-03-16T13:56:22.949Z,55.40
2019-03-16T13:58:53.950Z,55.40
2019-03-16T14:01:24.597Z,55.60
2019-03-16T14:03:55.264Z,56.00
2019-03-16T14:06:25.899Z,56.30
2019-03-16T14:08:56.821Z,56.00
2019-03-16T14:11:27.372Z,56.10
2019-03-16T14:13:58.058Z,56.20
2019-03-16T14:16:28.728Z,56.10
2019-03-16T14:18:59.570Z,55.70
2019-03-16T14:21:30.422Z,56.10
2019-03-16T14:24:01.124Z,55.40
2019-03-16T14:26:31.978Z,55.30
2019-03-16T14:29:02.630Z,55.20
2019-03-16T14:31:33.245Z,55.20
2019-03-16T14:34:03.615Z,55.10
2019-03-16T14:36:34.201Z,55.00
2019-03-16T14:39:06.026Z,55.00
2019-03-16T14:41:36.460Z,54.90
2019-03-16T14:44:07.672Z,55.00
2019-03-16T14:46:38.328Z,55.70
2019-03-16T14:49:09.171Z,55.10
2019-03-16T14:51:39.645Z,55.90
2019-03-16T14:54:10.381Z,55.20
2019-03-16T14:56:40.853Z,55.00
2019-03-16T14:59:11.533Z,54.90
2019-03-16T15:01:42.224Z,55.00
2019-03-16T15:04:13.034Z,56.00
2019-03-16T15:06:43.641Z,55.40
2019-03-16T15:09:14.324Z,54.40
2019-03-16T15:11:44.963Z,54.00
2019-03-16T15:14:21.471Z,54.30
2019-03-16T15:16:48.145Z,54.30
2019-03-16T15:19:18.746Z,54.20
2019-03-16T15:21:49.685Z,54.40
2019-03-16T15:24:20.542Z,54.30
2019-03-16T15:26:51.373Z,54.30
2019-03-16T15:29:22.194Z,54.30
2019-03-16T15:31:53.028Z,54.30
2019-03-16T15:34:23.728Z,54.20
2019-03-16T15:36:54.546Z,54.30
2019-03-16T15:39:25.148Z,54.60
2019-03-16T15:41:55.864Z,54.70
2019-03-16T15:44:26.455Z,54.70
2019-03-16T15:46:57.324Z,54.80
2019-03-16T15:49:28.085Z,54.90
2019-03-16T15:52:01.756Z,55.10
2019-03-16T15:54:32.347Z,54.90
2019-03-16T15:57:02.818Z,55.00
2019-03-16T15:59:33.338Z,55.00
2019-03-16T16:02:03.788Z,55.30
2019-03-16T16:04:34.708Z,55.50
2019-03-16T16:07:05.421Z,59.60
2019-03-16T16:09:36.063Z,58.20
2019-03-16T16:12:06.646Z,57.50
2019-03-16T16:14:37.362Z,57.70
2019-03-16T16:17:07.822Z,57.10
2019-03-16T16:19:38.504Z,57.10
2019-03-16T16:22:09.437Z,57.10
2019-03-16T16:24:40.079Z,56.90
2019-03-16T16:27:10.604Z,56.60
2019-03-16T16:29:41.191Z,56.50
2019-03-16T16:32:11.848Z,56.30
2019-03-16T16:34:42.706Z,56.20
2019-03-16T16:37:13.527Z,56.40
2019-03-16T16:39:44.383Z,56.20
2019-03-16T16:42:15.304Z,56.00
2019-03-16T16:44:45.875Z,55.90
2019-03-16T16:47:16.409Z,55.70
2019-03-16T16:49:47.101Z,55.70
2019-03-16T16:52:17.645Z,55.40
2019-03-16T16:54:48.487Z,55.40
2019-03-16T16:57:19.358Z,55.50
2019-03-16T16:59:49.895Z,55.40
2019-03-16T17:02:20.710Z,55.40
2019-03-16T17:04:51.494Z,55.50
2019-03-16T17:07:22.480Z,55.30
2019-03-16T17:09:53.129Z,55.40
2019-03-16T17:12:23.847Z,55.30
2019-03-16T17:14:54.273Z,55.30
2019-03-16T17:17:34.739Z,55.30
2019-03-16T17:19:57.578Z,55.20
2019-03-16T17:22:28.937Z,55.30
2019-03-16T17:24:59.402Z,55.20
2019-03-16T17:27:30.003Z,55.10
2019-03-16T17:30:00.707Z,54.90
2019-03-16T17:32:31.366Z,54.90
2019-03-16T17:35:01.912Z,54.80
2019-03-16T17:37:32.512Z,54.70
2019-03-16T17:40:03.418Z,55.00
2019-03-16T17:42:34.038Z,55.60
2019-03-16T17:45:04.927Z,57.30
2019-03-16T17:47:35.488Z,56.00
2019-03-16T17:50:06.572Z,56.50
2019-03-16T17:52:37.100Z,56.40
2019-03-16T17:55:08.304Z,56.90
2019-03-16T17:57:38.909Z,56.80
2019-03-16T18:00:11.074Z,56.50
2019-03-16T18:02:51.198Z,57.10
2019-03-16T18:05:14.394Z,56.40
2019-03-16T18:07:45.328Z,56.90
2019-03-16T18:10:15.966Z,56.60
2019-03-16T18:12:46.567Z,56.10
2019-03-16T18:15:17.474Z,56.50
2019-03-16T18:17:48.161Z,57.40
2019-03-16T18:20:18.803Z,57.60
2019-03-16T18:22:49.396Z,57.40
2019-03-16T18:25:20.033Z,56.30
2019-03-16T18:27:50.881Z,57.10
2019-03-16T18:30:21.466Z,56.90
2019-03-16T18:32:52.182Z,56.40
2019-03-16T18:35:22.763Z,56.50
2019-03-16T18:37:53.521Z,56.20
2019-03-16T18:40:24.165Z,56.40
2019-03-16T18:42:55.072Z,56.60
2019-03-16T18:45:26.057Z,56.70
2019-03-16T18:47:56.786Z,56.80
2019-03-16T18:50:27.696Z,57.30
2019-03-16T18:52:58.193Z,56.40
2019-03-16T18:55:28.780Z,56.60
2019-03-16T18:57:59.527Z,56.70
2019-03-16T19:00:30.326Z,56.40
2019-03-16T19:03:01.008Z,56.30
2019-03-16T19:05:31.623Z,56.20
2019-03-16T19:08:02.050Z,56.30
2019-03-16T19:10:32.831Z,56.10
2019-03-16T19:13:03.328Z,56.40
2019-03-16T19:15:33.956Z,56.50
2019-03-16T19:18:04.610Z,56.50
2019-03-16T19:20:35.702Z,56.40
2019-03-16T19:23:06.413Z,56.00
2019-03-16T19:25:37.105Z,56.00
2019-03-16T19:28:07.866Z,56.00
2019-03-16T19:30:38.310Z,56.00
2019-03-16T19:33:08.865Z,55.90
2019-03-16T19:35:40.016Z,55.90
2019-03-16T19:38:13.223Z,55.90
2019-03-16T19:40:42.816Z,55.90
2019-03-16T19:43:13.631Z,56.00
2019-03-16T19:45:44.101Z,55.70
2019-03-16T19:48:14.691Z,55.80
2019-03-16T19:50:45.111Z,55.90
2019-03-16T19:53:15.685Z,55.90
2019-03-16T19:55:46.069Z,56.00
2019-03-16T19:58:16.970Z,56.10
2019-03-16T20:00:47.474Z,56.20
2019-03-16T20:03:18.175Z,56.10
2019-03-16T20:05:49.030Z,56.20
2019-03-16T20:08:20.015Z,56.10
2019-03-16T20:10:50.798Z,56.00
2019-03-16T20:13:21.567Z,56.10
2019-03-16T20:15:52.360Z,55.90
2019-03-16T20:18:23.164Z,55.90
2019-03-16T20:20:53.946Z,56.00
2019-03-16T20:23:24.799Z,55.90
2019-03-16T20:25:55.641Z,56.00
2019-03-16T20:28:26.136Z,56.20
2019-03-16T20:30:56.877Z,56.10
2019-03-16T20:33:27.494Z,56.00
2019-03-16T20:35:58.413Z,56.10
2019-03-16T20:38:28.867Z,56.00
2019-03-16T20:40:59.307Z,56.00
2019-03-16T20:43:30.055Z,55.80
2019-03-16T20:46:00.754Z,55.90
2019-03-16T20:48:31.329Z,55.90
2019-03-16T20:51:01.992Z,56.40
2019-03-16T20:53:32.539Z,55.80
2019-03-16T20:56:03.315Z,55.80
2019-03-16T20:58:33.823Z,55.90
2019-03-16T21:01:04.512Z,56.00
2019-03-16T21:03:35.197Z,56.10
2019-03-16T21:06:05.749Z,56.10
2019-03-16T21:08:36.642Z,56.10
2019-03-16T21:11:07.206Z,56.00
2019-03-16T21:13:37.845Z,56.10
2019-03-16T21:16:08.461Z,56.00
2019-03-16T21:18:39.093Z,55.70
2019-03-16T21:21:09.722Z,55.80
2019-03-16T21:23:40.187Z,56.00
2019-03-16T21:26:10.970Z,55.90
2019-03-16T21:28:41.637Z,56.00
2019-03-16T21:31:12.320Z,56.00
2019-03-16T21:33:45.697Z,55.70
2019-03-16T21:36:15.476Z,55.70
2019-03-16T21:38:46.094Z,55.60
2019-03-16T21:41:16.837Z,55.60
2019-03-16T21:43:47.797Z,55.70
2019-03-16T21:46:18.422Z,55.60
2019-03-16T21:48:49.302Z,55.60
2019-03-16T21:51:20.084Z,55.50
2019-03-16T21:53:50.697Z,55.50
2019-03-16T21:56:21.459Z,55.40
2019-03-16T21:58:51.976Z,55.90
2019-03-16T22:01:22.804Z,56.00
2019-03-16T22:03:53.226Z,55.90
2019-03-16T22:06:24.094Z,55.90
2019-03-16T22:08:54.714Z,55.80
2019-03-16T22:11:25.586Z,55.80
2019-03-16T22:13:56.278Z,55.60
2019-03-16T22:16:26.918Z,55.80
2019-03-16T22:18:57.859Z,55.60
2019-03-16T22:21:28.284Z,55.80
2019-03-16T22:23:59.257Z,56.30
2019-03-16T22:26:29.693Z,55.80
2019-03-16T22:29:00.191Z,55.80
2019-03-16T22:31:31.117Z,55.90
2019-03-16T22:34:01.840Z,55.90
2019-03-16T22:36:32.628Z,55.80
2019-03-16T22:39:03.524Z,55.70
2019-03-16T22:41:34.088Z,55.90
2019-03-16T22:44:04.755Z,55.90
2019-03-16T22:46:35.220Z,55.80
2019-03-16T22:49:05.746Z,55.70
2019-03-16T22:51:36.233Z,55.80
2019-03-16T22:54:06.883Z,55.90
2019-03-16T22:56:37.549Z,55.90
2019-03-16T22:59:08.345Z,55.80
2019-03-16T23:01:38.920Z,55.80
2019-03-16T23:04:09.548Z,55.40
2019-03-16T23:06:40.089Z,55.50
2019-03-16T23:09:10.696Z,55.50
2019-03-16T23:11:41.154Z,55.50
2019-03-16T23:14:11.810Z,55.40
2019-03-16T23:16:42.351Z,55.30
2019-03-16T23:19:13.215Z,55.30
2019-03-16T23:21:43.941Z,55.30
2019-03-16T23:24:14.697Z,55.30
2019-03-16T23:26:45.413Z,55.30
2019-03-16T23:29:15.960Z,55.30
2019-03-16T23:31:46.665Z,55.30
2019-03-16T23:34:19.393Z,55.20
2019-03-16T23:36:49.647Z,55.20
2019-03-16T23:39:20.555Z,55.70
2019-03-16T23:41:51.234Z,55.30
2019-03-16T23:44:21.694Z,55.20
2019-03-16T23:46:52.442Z,55.10
2019-03-16T23:49:22.857Z,55.10
2019-03-16T23:51:53.669Z,55.10
2019-03-16T23:54:24.290Z,54.90
2019-03-16T23:56:55.098Z,55.00
2019-03-16T23:59:25.683Z,55.00
